Etusivu
METAR-TAF:

METAR-TAF

Lentoasemat :

Kramfors, Ruotsi

Leveyspiiri: 63-03N, Pituuspiiri: 017-46E, korkeus merenpinnasta: 10 m

Tämänhetkinen sää

Tämä raportti tehtiin 18 tuntia ja 27 minuuttia sitten, kello 14.50 UTC
tyyntä
Lämpötila -10°C
Kosteus 85%
Ilmanpaine 1029 hPa
Näkyvyys 10 km tai enemmän
Pilvistä 3100 ft:n korkeudessa

METAR: ESNK 201450Z 00000KT 9999 OVC031 M10/M12 Q1029

Aika: 10:17 (09:17 UTC)

Sääennuste

Tämä raportti tehtiin 18 tuntia ja 47 minuuttia sitten, kello 14.30 UTC
Ennuste voimassa 20. päivästä klo 15 UTC - 20. päivään klo 20 UTC
Tuuli 2 kn eri suunnista
Näkyvyys 10 km tai enemmän
Hajonneita pilviä 2500 ft:n korkeudessa
heikkoa lumisadetta

TAF: ESNK 201430Z 2015/2020 VRB02KT 9999 -SN BKN025

Säähavainnot ja -ennusteet yli 4000 lentoasemalta (METAR- ja TAF-raportit).

Käytössä olevat sääasemat on merkitty karttaan keltaisilla ja punaisilla pisteillä.

Aseta hiiri pisteen päälle nähdäksesi sääaseman nimen.

Klikkaa sitten nähdäksesi säähavainnot ja -ennusteet.

Kartan vaihtaminen: klikkaa mustalla rastilla varustettuja vihreitä pisteitä, niin voit zoomata sisään; viivalla varustettua vihreää pistettä, niin voit zoomata ulos tai vihreitä nuolia, niin pääset viereisille kartoille.


METAR-TAF: